KCNM/CNM METAR and TAF weather

Enter ICAO airport designator
Station Type Date Time Source
KCNM METAR 2019/04/25 21:53 UTC NOAA

KCNM 252153Z AUTO 10007KT 10SM CLR 30/03 A2997 RMK AO2 SLP103 T03000028


Station Type Date Time Source
KCNM Decoded METAR 2019/04/25 21:53 UTC NOAA

CARLSBAD CAVERN CITY, NM, United States (KCNM) 32-20N 104-16W 985M
Apr 25, 2019 - 05:53 PM EDT / 2019.04.25 2153 UTC
Wind: from the E (100 degrees) at 8 MPH (7 KT):0
Visibility: 10 mile(s):0
Sky conditions: clear
Temperature: 86.0 F (30.0 C)
Dew Point: 37.0 F (2.8 C)
Relative Humidity: 17%
Pressure (altimeter): 29.97 in. Hg (1014 hPa)
ob: KCNM 252153Z AUTO 10007KT 10SM CLR 30/03 A2997 RMK AO2 SLP103 T03000028
cycle: 22

Station Type Date Time Source
KCNM TAF 2019/04/25 18:24 UTC NOAA

TAF KCNM 251722Z 2518/2618 07006KT P6SM SKC
FM260300 11010KT P6SM FEW100

Example: see airport list